Time;durP1;ratioP1;P1;durP2;ratioP2;P2;SDS_P1;SDS_P2;PMS_P1;PMS_P2;Temp;Humidity;BMP_temperature;BMP_pressure;BME280_temperature;BME280_humidity;BME280_pressure;Samples;Min_cycle;Max_cycle;Signal;HPM_P1;HPM_P2
2022/12/15 00:38:43;;;;;;;5.30;3.43;;;4.40;90.20;;;;;;4949856;28;20193;-69
2022/12/15 00:41:16;;;;;;;7.80;2.90;;;4.40;90.60;;;;;;4952259;28;20210;-70
2022/12/15 00:43:42;;;;;;;3.73;3.43;;;4.40;90.90;;;;;;4948781;28;20754;-71
2022/12/15 00:48:52;;;;;;;2.93;2.73;;;4.40;90.40;;;;;;4953340;28;22207;-70
2022/12/15 00:51:18;;;;;;;3.50;3.20;;;4.30;90.60;;;;;;4951327;28;20223;-70
2022/12/15 01:21:16;;;;;;;3.77;3.47;;;3.70;92.00;;;;;;4953262;28;20265;-70
2022/12/15 01:23:42;;;;;;;3.23;3.00;;;3.60;92.60;;;;;;4951630;28;20191;-69
2022/12/15 01:26:07;;;;;;;3.33;3.13;;;3.60;92.90;;;;;;4948962;28;20190;-71
2022/12/15 01:28:33;;;;;;;4.07;3.67;;;3.60;92.90;;;;;;4946596;28;20194;-70
2022/12/15 01:30:59;;;;;;;4.37;3.97;;;3.60;92.90;;;;;;4950121;28;20209;-71
2022/12/15 01:33:24;;;;;;;3.17;2.87;;;3.60;93.10;;;;;;4955164;28;20186;-71
2022/12/15 01:36:00;;;;;;;3.97;3.33;;;3.50;93.40;;;;;;4958359;28;20683;-71
2022/12/15 01:38:27;;;;;;;2.60;2.50;;;3.60;93.20;;;;;;4954796;28;20535;-71
2022/12/15 01:41:02;;;;;;;3.93;3.20;;;3.60;93.80;;;;;;4955709;28;20253;-71
2022/12/15 01:43:33;;;;;;;4.47;3.40;;;3.60;93.60;;;;;;4956874;28;20273;-70
2022/12/15 01:46:05;;;;;;;3.30;3.10;;;3.60;93.30;;;;;;4953334;28;20246;-71
2022/12/15 01:48:37;;;;;;;2.70;2.50;;;3.40;94.20;;;;;;4950454;28;20189;-70
2022/12/15 01:51:20;;;;;;;3.50;2.80;;;3.30;94.70;;;;;;4952813;28;20199;-70
2022/12/15 01:53:48;;;;;;;2.63;2.43;;;3.40;94.40;;;;;;4955388;28;20209;-70
2022/12/15 01:56:15;;;;;;;3.43;2.07;;;3.40;93.90;;;;;;4951510;28;20187;-71
2022/12/15 01:58:42;;;;;;;4.67;2.23;;;3.50;93.80;;;;;;4960797;28;20182;-71
2022/12/15 02:01:09;;;;;;;2.40;2.20;;;3.50;94.20;;;;;;4952234;28;20206;-70
2022/12/15 02:03:36;;;;;;;2.20;1.70;;;3.50;94.30;;;;;;4954893;28;20194;-70
2022/12/15 02:06:02;;;;;;;2.17;2.07;;;3.40;94.70;;;;;;4956247;28;20260;-71
2022/12/15 02:08:29;;;;;;;2.57;1.93;;;3.40;95.00;;;;;;4953023;28;20612;-70
2022/12/15 02:11:20;;;;;;;1.40;1.30;;;3.50;94.90;;;;;;4952654;28;20194;-69
2022/12/15 02:13:46;;;;;;;2.40;1.53;;;3.50;94.50;;;;;;4956689;28;20264;-70
2022/12/15 02:16:42;;;;;;;1.50;1.40;;;3.50;94.40;;;;;;4958600;28;20179;-70
2022/12/15 02:19:34;;;;;;;1.13;1.03;;;3.60;94.30;;;;;;4950280;28;20245;-70
2022/12/15 02:22:19;;;;;;;1.87;1.63;;;3.60;94.30;;;;;;4948692;28;20206;-72
2022/12/15 02:25:08;;;;;;;1.20;1.20;;;3.60;93.90;;;;;;4954633;28;20201;-69
2022/12/15 02:27:58;;;;;;;1.10;0.97;;;3.70;94.00;;;;;;4953075;28;20245;-70
2022/12/15 02:30:45;;;;;;;0.73;0.70;;;3.80;93.70;;;;;;4954266;28;20183;-71
2022/12/15 02:33:23;;;;;;;1.20;1.20;;;3.80;93.50;;;;;;4952268;28;20178;-70
2022/12/15 02:35:54;;;;;;;1.17;0.90;;;3.80;93.30;;;;;;4951921;28;20186;-71
2022/12/15 02:38:35;;;;;;;1.57;1.57;;;3.90;93.30;;;;;;4950552;28;20179;-70
2022/12/15 02:41:03;;;;;;;1.47;1.47;;;3.90;93.00;;;;;;4955458;28;20222;-70
2022/12/15 02:43:31;;;;;;;2.87;2.23;;;4.00;92.90;;;;;;4948267;28;20214;-70
2022/12/15 02:46:22;;;;;;;2.87;2.00;;;4.00;92.90;;;;;;4953284;28;20223;-72
2022/12/15 02:49:22;;;;;;;2.40;2.20;;;4.10;92.80;;;;;;4953539;28;20210;-71
2022/12/15 02:52:06;;;;;;;2.03;1.83;;;4.10;92.70;;;;;;4879476;29;20201;-71
2022/12/15 02:54:53;;;;;;;2.17;1.83;;;4.20;92.60;;;;;;4876605;29;20217;-70
2022/12/15 02:57:25;;;;;;;2.20;1.60;;;4.20;92.50;;;;;;4873061;29;20198;-71
2022/12/15 03:00:04;;;;;;;1.97;1.87;;;4.20;92.50;;;;;;4871916;29;20207;-71
2022/12/15 03:02:33;;;;;;;2.67;1.70;;;4.30;92.20;;;;;;4875596;29;20237;-72
2022/12/15 03:04:59;;;;;;;1.67;1.67;;;4.30;92.20;;;;;;4872931;29;20236;-71
2022/12/15 03:07:26;;;;;;;1.43;1.43;;;4.30;92.20;;;;;;4877235;29;20205;-71
2022/12/15 03:09:58;;;;;;;2.00;1.77;;;4.40;92.20;;;;;;4871145;29;20228;-71
2022/12/15 03:12:24;;;;;;;1.90;1.70;;;4.40;92.00;;;;;;4875848;29;21046;-71
2022/12/15 03:14:50;;;;;;;1.77;1.67;;;4.40;92.10;;;;;;4871115;29;20207;-71
2022/12/15 03:17:15;;;;;;;4.17;1.50;;;4.40;92.20;;;;;;4874752;29;20189;-72
2022/12/15 03:19:41;;;;;;;1.57;1.50;;;4.50;92.00;;;;;;4875395;29;20290;-71
2022/12/15 03:22:07;;;;;;;1.43;1.30;;;4.50;92.00;;;;;;4874366;29;20305;-70
2022/12/15 03:24:33;;;;;;;1.80;1.70;;;4.50;92.10;;;;;;4879252;29;20189;-71
2022/12/15 03:26:58;;;;;;;1.33;1.33;;;4.50;92.10;;;;;;4872309;29;20776;-71
2022/12/15 03:29:24;;;;;;;1.57;1.57;;;4.50;92.00;;;;;;4931488;28;20273;-71
2022/12/15 03:31:50;;;;;;;1.77;1.63;;;4.60;92.30;;;;;;4952235;28;20277;-71
2022/12/15 03:34:16;;;;;;;1.40;1.40;;;4.60;92.00;;;;;;4955549;28;20269;-73
2022/12/15 03:36:41;;;;;;;1.97;1.80;;;4.50;92.00;;;;;;4949729;28;20190;-72
2022/12/15 03:39:07;;;;;;;1.80;1.70;;;4.50;91.90;;;;;;4951124;28;20191;-72
2022/12/15 03:41:33;;;;;;;1.50;1.50;;;4.50;92.10;;;;;;4953732;28;20210;-72
2022/12/15 03:43:59;;;;;;;3.00;2.00;;;4.50;92.20;;;;;;4953462;28;20183;-71
2022/12/15 03:46:25;;;;;;;1.97;1.87;;;4.50;92.20;;;;;;4950416;28;20190;-71
2022/12/15 03:48:52;;;;;;;2.07;1.93;;;4.50;92.10;;;;;;4957734;28;20182;-72
2022/12/15 03:51:18;;;;;;;4.60;2.47;;;4.40;92.20;;;;;;4949648;28;20313;-72
2022/12/15 03:53:46;;;;;;;3.20;2.33;;;4.40;92.30;;;;;;4950924;28;20273;-71
2022/12/15 03:56:12;;;;;;;2.13;2.03;;;4.40;92.40;;;;;;4954394;28;20201;-72
2022/12/15 03:58:38;;;;;;;2.00;1.90;;;4.30;92.50;;;;;;4954551;28;20187;-71
2022/12/15 04:01:31;;;;;;;2.60;2.40;;;4.30;92.60;;;;;;4952454;28;20210;-71
2022/12/15 04:03:58;;;;;;;2.17;2.07;;;4.20;92.50;;;;;;4874477;29;20208;-71
2022/12/15 04:06:24;;;;;;;3.73;3.27;;;4.20;93.20;;;;;;4875457;29;20300;-71
2022/12/15 04:08:49;;;;;;;3.07;2.77;;;4.20;93.30;;;;;;4872877;29;20281;-71
2022/12/15 04:11:15;;;;;;;3.20;3.00;;;4.20;93.30;;;;;;4870066;29;20197;-71
2022/12/15 04:13:41;;;;;;;2.03;1.93;;;4.20;93.00;;;;;;4874252;29;20195;-72
2022/12/15 04:16:07;;;;;;;2.80;2.60;;;4.20;93.00;;;;;;4878747;29;20215;-72
2022/12/15 04:18:33;;;;;;;2.10;2.00;;;4.20;93.30;;;;;;4869678;29;20245;-71
2022/12/15 04:20:58;;;;;;;2.77;2.50;;;4.20;93.30;;;;;;4856686;29;20233;-72
2022/12/15 04:23:24;;;;;;;2.67;2.47;;;4.20;93.10;;;;;;4869913;29;20192;-72
2022/12/15 05:32:01;;;;;;;2.13;1.80;;;4.60;92.80;;;;;;4952276;28;20683;-71
2022/12/15 05:34:30;;;;;;;1.67;1.60;;;4.60;92.60;;;;;;4951852;28;20195;-73
2022/12/15 05:36:57;;;;;;;2.40;2.20;;;4.60;92.80;;;;;;4953840;28;20194;-72
2022/12/15 05:39:24;;;;;;;2.40;2.13;;;4.60;92.80;;;;;;4954135;28;20640;-73
2022/12/15 05:41:50;;;;;;;2.00;1.90;;;4.60;92.90;;;;;;4948748;28;20211;-72
2022/12/15 05:44:17;;;;;;;2.57;2.47;;;4.60;93.00;;;;;;4952666;28;20187;-73
2022/12/15 05:46:43;;;;;;;2.50;2.33;;;4.60;92.90;;;;;;4948132;28;20207;-71
2022/12/15 05:49:12;;;;;;;5.07;4.10;;;4.60;93.10;;;;;;4952216;28;20585;-71
2022/12/15 05:51:39;;;;;;;3.20;2.90;;;4.60;93.20;;;;;;4950745;28;20389;-71
2022/12/15 05:54:06;;;;;;;5.70;4.10;;;4.50;93.30;;;;;;4951562;28;20183;-72
2022/12/15 05:56:32;;;;;;;6.40;3.77;;;4.50;93.40;;;;;;4951269;28;20218;-72
2022/12/15 05:58:59;;;;;;;8.03;3.60;;;4.50;93.50;;;;;;4934454;28;20282;-71
2022/12/15 06:01:26;;;;;;;5.70;4.13;;;4.40;93.50;;;;;;4953986;28;20215;-72
2022/12/15 06:03:51;;;;;;;5.53;3.40;;;4.40;93.80;;;;;;4954498;28;20187;-72
2022/12/15 06:06:18;;;;;;;5.00;3.77;;;4.40;93.90;;;;;;4952077;28;20891;-71
2022/12/15 06:08:43;;;;;;;3.80;3.50;;;4.30;93.90;;;;;;4939144;28;20191;-70
2022/12/15 06:11:12;;;;;;;4.73;3.20;;;4.20;94.20;;;;;;4954043;28;20187;-71
2022/12/15 06:13:38;;;;;;;7.47;3.07;;;4.20;94.30;;;;;;4950148;28;20198;-71
2022/12/15 06:16:22;;;;;;;3.23;3.03;;;4.30;94.10;;;;;;4952310;28;20195;-71
2022/12/15 06:19:01;;;;;;;3.23;2.63;;;4.20;94.30;;;;;;4946972;28;20693;-71
2022/12/15 06:21:29;;;;;;;2.60;2.43;;;4.30;94.30;;;;;;4948109;28;20274;-71
2022/12/15 06:23:55;;;;;;;2.53;2.33;;;4.20;94.20;;;;;;4951646;28;20186;-71
2022/12/15 06:26:33;;;;;;;3.50;3.07;;;4.30;94.20;;;;;;4952790;28;20651;-72
2022/12/15 06:29:03;;;;;;;4.03;3.23;;;4.30;94.20;;;;;;4952491;28;20190;-70
2022/12/15 06:31:30;;;;;;;3.27;2.20;;;4.30;94.10;;;;;;4951814;28;20186;-71
2022/12/15 06:33:57;;;;;;;4.43;2.70;;;4.40;94.30;;;;;;4948937;28;20957;-71
2022/12/15 06:36:23;;;;;;;2.90;2.70;;;4.30;94.20;;;;;;4954723;28;20179;-71
2022/12/15 06:38:50;;;;;;;5.73;2.73;;;4.30;94.30;;;;;;4932979;28;20186;-70
2022/12/15 06:41:18;;;;;;;3.93;3.20;;;4.40;94.40;;;;;;4952383;28;20225;-71
2022/12/15 06:43:54;;;;;;;5.20;3.30;;;4.40;94.40;;;;;;4953465;28;20665;-70
2022/12/15 06:46:21;;;;;;;5.07;3.23;;;4.30;94.20;;;;;;4947789;28;20183;-69
2022/12/15 06:48:47;;;;;;;2.67;2.33;;;4.30;94.70;;;;;;4935532;28;20750;-71
2022/12/15 06:51:14;;;;;;;3.43;3.13;;;4.40;94.60;;;;;;4951007;28;20195;-71
2022/12/15 06:53:41;;;;;;;6.07;3.27;;;4.40;94.30;;;;;;4954372;28;20206;-70
2022/12/15 06:56:18;;;;;;;2.80;2.60;;;4.40;94.30;;;;;;4955976;28;20197;-70
2022/12/15 06:58:47;;;;;;;3.23;2.83;;;4.50;94.30;;;;;;4938283;28;20676;-72
2022/12/15 07:01:14;;;;;;;3.43;2.80;;;4.60;94.60;;;;;;4952445;28;20741;-70
2022/12/15 07:03:40;;;;;;;2.33;2.23;;;4.70;94.40;;;;;;4935680;28;20197;-70
2022/12/15 07:06:10;;;;;;;4.77;3.23;;;4.70;94.20;;;;;;4956963;28;20626;-70
2022/12/15 07:08:36;;;;;;;3.97;2.70;;;4.70;94.50;;;;;;4950424;28;20198;-70
2022/12/15 07:11:04;;;;;;;4.03;2.73;;;4.70;94.50;;;;;;4946791;28;20219;-70
2022/12/15 07:13:30;;;;;;;3.33;3.13;;;4.90;94.40;;;;;;4954227;28;20270;-70
2022/12/15 07:16:00;;;;;;;2.63;2.50;;;5.00;94.40;;;;;;4951126;28;20274;-70
2022/12/15 07:18:26;;;;;;;2.90;2.63;;;5.10;94.20;;;;;;4950726;28;20242;-71
2022/12/15 07:20:52;;;;;;;4.23;3.40;;;5.10;94.10;;;;;;4951265;28;20187;-70
2022/12/15 07:23:18;;;;;;;3.67;3.37;;;5.20;94.20;;;;;;4946513;28;20183;-69
2022/12/15 07:25:43;;;;;;;3.53;3.23;;;5.20;94.00;;;;;;4948639;28;20246;-69
2022/12/15 07:28:10;;;;;;;3.13;2.93;;;5.30;93.80;;;;;;4949199;28;20194;-69
2022/12/15 07:30:37;;;;;;;2.70;2.50;;;5.40;93.30;;;;;;4947025;28;20175;-69
2022/12/15 07:33:03;;;;;;;4.30;3.27;;;5.40;93.60;;;;;;4947563;28;20191;-70
2022/12/15 07:35:29;;;;;;;4.67;2.90;;;5.40;93.70;;;;;;4942957;28;20195;-69
2022/12/15 07:37:55;;;;;;;2.90;2.70;;;5.50;93.90;;;;;;4946350;28;20187;-70
2022/12/15 07:40:21;;;;;;;3.10;2.80;;;5.60;93.90;;;;;;4950254;28;20190;-69
2022/12/15 07:42:47;;;;;;;2.83;2.73;;;5.70;93.70;;;;;;4950788;28;20214;-69
2022/12/15 07:45:13;;;;;;;3.23;3.03;;;5.70;93.40;;;;;;4946993;28;20277;-69
2022/12/15 07:47:39;;;;;;;3.37;3.10;;;5.70;93.40;;;;;;4945891;28;20182;-70
2022/12/15 07:50:05;;;;;;;3.43;3.13;;;5.80;93.50;;;;;;4952458;28;20704;-69
2022/12/15 07:52:31;;;;;;;4.50;2.77;;;5.90;93.50;;;;;;4943879;28;20250;-69
2022/12/15 07:54:56;;;;;;;2.90;2.60;;;5.90;93.50;;;;;;4948042;28;20187;-69
2022/12/15 07:57:22;;;;;;;2.27;2.17;;;6.00;93.40;;;;;;4946640;28;20731;-69
2022/12/15 07:59:50;;;;;;;3.37;3.07;;;6.10;93.30;;;;;;4951536;28;20193;-69
2022/12/15 08:02:16;;;;;;;2.80;2.60;;;6.20;93.40;;;;;;4949417;28;20242;-70
2022/12/15 08:04:42;;;;;;;3.57;3.27;;;6.30;93.20;;;;;;4945167;28;20270;-69
2022/12/15 08:07:09;;;;;;;3.27;3.07;;;6.40;93.10;;;;;;4952027;28;20202;-69
2022/12/15 08:09:35;;;;;;;3.17;2.97;;;6.40;92.90;;;;;;4947209;28;20175;-70
2022/12/15 08:12:01;;;;;;;3.30;3.00;;;6.50;92.90;;;;;;4949263;28;20186;-69
2022/12/15 08:14:31;;;;;;;3.30;2.47;;;6.50;92.60;;;;;;4946817;28;20252;-70
2022/12/15 08:16:56;;;;;;;2.87;2.67;;;6.60;92.50;;;;;;4929476;28;20198;-70
2022/12/15 08:19:22;;;;;;;3.83;3.53;;;6.60;92.30;;;;;;4948094;28;20189;-69
2022/12/15 08:21:48;;;;;;;5.03;3.40;;;6.60;92.30;;;;;;4949502;28;20218;-70
2022/12/15 08:24:14;;;;;;;3.53;3.23;;;6.70;91.80;;;;;;4947696;28;20226;-70
2022/12/15 08:26:41;;;;;;;3.87;3.57;;;6.70;91.40;;;;;;4943423;28;20186;-70
2022/12/15 08:29:11;;;;;;;2.67;2.53;;;6.70;91.60;;;;;;4948993;28;20193;-69
2022/12/15 08:31:37;;;;;;;3.20;3.00;;;6.70;91.70;;;;;;4948970;28;20294;-70
2022/12/15 08:34:04;;;;;;;4.70;4.27;;;6.70;91.70;;;;;;4946119;28;20912;-70
2022/12/15 08:36:30;;;;;;;5.13;3.83;;;6.70;91.80;;;;;;4951494;28;20743;-69
2022/12/15 08:38:58;;;;;;;4.07;3.73;;;6.70;91.90;;;;;;4948765;28;20186;-69
2022/12/15 08:41:29;;;;;;;3.23;3.07;;;6.80;92.20;;;;;;4948610;28;20210;-70
2022/12/15 08:43:57;;;;;;;3.73;3.50;;;6.90;92.20;;;;;;4945838;28;20858;-70
2022/12/15 08:46:29;;;;;;;7.73;4.47;;;7.00;92.40;;;;;;4950573;28;20330;-69
2022/12/15 08:48:55;;;;;;;4.50;4.10;;;7.10;92.20;;;;;;4945237;28;20563;-70
2022/12/15 08:51:23;;;;;;;4.47;3.87;;;7.30;92.40;;;;;;4945646;28;20194;-70
2022/12/15 08:53:49;;;;;;;4.77;4.27;;;7.30;92.20;;;;;;4941528;28;20182;-70
2022/12/15 08:56:17;;;;;;;4.43;4.03;;;7.40;91.90;;;;;;4951840;28;20198;-70
2022/12/15 08:58:44;;;;;;;4.43;4.03;;;7.50;91.90;;;;;;4944554;28;20229;-69
2022/12/15 09:01:12;;;;;;;4.20;3.90;;;7.50;91.80;;;;;;4945059;28;20266;-70
2022/12/15 09:03:39;;;;;;;4.23;3.83;;;7.60;91.90;;;;;;4948670;28;20669;-68
2022/12/15 09:06:07;;;;;;;4.33;3.70;;;7.80;91.80;;;;;;4948751;28;20715;-69
2022/12/15 09:08:33;;;;;;;4.97;4.57;;;7.80;91.50;;;;;;4952469;28;20854;-70
2022/12/15 09:11:00;;;;;;;5.40;4.50;;;7.90;91.60;;;;;;4946863;28;20187;-69
2022/12/15 09:13:26;;;;;;;6.93;4.17;;;8.00;91.40;;;;;;4945880;28;20209;-69
2022/12/15 09:16:00;;;;;;;4.97;4.47;;;8.00;91.10;;;;;;4948843;28;20194;-69
2022/12/15 09:18:26;;;;;;;4.93;4.43;;;8.00;90.70;;;;;;4945721;28;20181;-69
2022/12/15 09:20:52;;;;;;;6.47;4.90;;;8.10;91.10;;;;;;4947926;28;20708;-69
2022/12/15 09:23:19;;;;;;;5.47;4.93;;;8.10;90.80;;;;;;4946806;28;20214;-69
2022/12/15 09:25:45;;;;;;;4.80;4.40;;;8.20;91.10;;;;;;4944404;28;20179;-70
2022/12/15 09:28:11;;;;;;;5.10;4.60;;;8.30;90.40;;;;;;4950191;28;20614;-70
2022/12/15 09:30:37;;;;;;;4.57;4.17;;;8.40;91.10;;;;;;4946846;28;20188;-69
2022/12/15 09:33:03;;;;;;;4.93;4.57;;;8.50;90.80;;;;;;4949964;28;20808;-69
2022/12/15 09:35:29;;;;;;;5.00;4.60;;;8.60;91.20;;;;;;4949097;28;20245;-68
2022/12/15 09:37:56;;;;;;;4.93;4.43;;;8.70;91.40;;;;;;4945883;28;20243;-70
2022/12/15 09:40:22;;;;;;;6.30;5.43;;;8.80;90.90;;;;;;4944873;28;20273;-69
2022/12/15 09:42:55;;;;;;;4.63;4.17;;;8.90;90.60;;;;;;4949799;28;20227;-70
2022/12/15 09:45:33;;;;;;;6.67;4.40;;;9.10;91.10;;;;;;4942274;28;20318;-70
2022/12/15 09:48:03;;;;;;;5.68;4.70;;;9.40;91.40;;;;;;4942118;28;20672;-69
2022/12/15 09:50:39;;;;;;;6.30;5.18;;;9.70;91.80;;;;;;4943392;28;20948;-69
2022/12/15 09:53:10;;;;;;;7.30;5.72;;;10.00;91.80;;;;;;4949003;28;20190;-69
2022/12/15 09:55:35;;;;;;;6.68;5.85;;;10.40;91.60;;;;;;4954211;28;20178;-68
2022/12/15 09:58:43;;;;;;;9.65;7.55;;;10.70;91.20;;;;;;4948776;28;20650;-69
2022/12/15 10:01:34;;;;;;;9.88;7.57;;;11.00;89.40;;;;;;4950450;28;20241;-70
2022/12/15 10:04:21;;;;;;;14.23;9.82;;;11.30;88.00;;;;;;4948833;28;20583;-69
2022/12/15 10:06:57;;;;;;;15.18;9.93;;;11.50;86.70;;;;;;4952792;28;20194;-70
2022/12/15 10:09:27;;;;;;;18.20;11.63;;;11.60;85.70;;;;;;4947334;28;20198;-70
2022/12/15 10:12:15;;;;;;;19.58;13.55;;;11.90;86.10;;;;;;4952211;28;20190;-68
2022/12/15 10:14:44;;;;;;;24.88;16.17;;;12.20;85.30;;;;;;4948927;28;20202;-70
2022/12/15 10:17:50;;;;;;;30.77;17.48;;;12.40;83.50;;;;;;4951994;28;20705;-69
2022/12/15 10:20:25;;;;;;;26.15;16.35;;;12.50;82.30;;;;;;4871510;29;20212;-70
2022/12/15 10:22:55;;;;;;;24.67;17.35;;;12.70;82.10;;;;;;4876017;29;20839;-68
2022/12/15 10:25:24;;;;;;;27.67;17.33;;;12.80;82.50;;;;;;4872281;29;20221;-68
2022/12/15 10:27:53;;;;;;;26.05;16.85;;;12.80;79.80;;;;;;4875440;29;20190;-71
2022/12/15 10:30:19;;;;;;;26.55;17.30;;;12.80;80.30;;;;;;4873102;29;20709;-69
2022/12/15 10:33:19;;;;;;;24.80;16.25;;;12.70;79.70;;;;;;4875103;29;20232;-70
2022/12/15 10:35:47;;;;;;;26.98;16.88;;;12.70;80.40;;;;;;4872930;29;20189;-69
2022/12/15 10:38:30;;;;;;;26.20;16.83;;;12.80;81.50;;;;;;4880827;29;20316;-69
2022/12/15 10:41:00;;;;;;;24.75;15.38;;;12.80;79.50;;;;;;4874021;29;20186;-68
2022/12/15 10:43:32;;;;;;;25.20;15.57;;;12.70;79.90;;;;;;4873192;29;20384;-69
2022/12/15 10:46:21;;;;;;;23.75;14.88;;;12.70;79.60;;;;;;4873314;29;20598;-68
2022/12/15 10:48:49;;;;;;;23.20;15.85;;;12.60;80.10;;;;;;4869167;29;20681;-68
2022/12/15 10:51:17;;;;;;;19.55;14.80;;;12.50;79.20;;;;;;4872987;29;20201;-68
2022/12/15 10:53:50;;;;;;;24.58;14.73;;;12.40;79.40;;;;;;4873103;29;20193;-68
2022/12/15 10:56:26;;;;;;;21.95;14.13;;;12.30;79.50;;;;;;4883730;28;20943;-68
2022/12/15 10:58:58;;;;;;;22.30;14.00;;;12.30;80.10;;;;;;4949860;28;20843;-69
2022/12/15 11:01:29;;;;;;;19.77;13.13;;;12.20;80.50;;;;;;4942989;28;20723;-69
2022/12/15 11:03:55;;;;;;;19.38;13.45;;;12.10;80.20;;;;;;4946165;28;20191;-69
2022/12/15 11:06:24;;;;;;;21.27;12.93;;;11.90;80.00;;;;;;4928608;28;20321;-67
2022/12/15 11:08:53;;;;;;;21.92;13.40;;;11.90;80.30;;;;;;4953746;28;20233;-70
2022/12/15 11:14:25;;;;;;;18.77;12.05;;;11.60;80.70;;;;;;4950459;28;20336;-69
2022/12/15 11:17:00;;;;;;;19.08;12.77;;;11.50;80.80;;;;;;4946891;28;20669;-70
2022/12/15 11:19:36;;;;;;;17.52;11.70;;;11.40;81.50;;;;;;4947338;28;20265;-69
2022/12/15 11:22:27;;;;;;;15.68;10.80;;;11.40;82.10;;;;;;4950712;28;20218;-68
2022/12/15 11:24:59;;;;;;;15.85;11.45;;;11.40;82.20;;;;;;4949112;28;20183;-69
2022/12/15 11:27:35;;;;;;;17.98;12.80;;;11.30;81.80;;;;;;4950879;28;20188;-68
2022/12/15 11:30:01;;;;;;;20.05;11.68;;;11.20;82.00;;;;;;4945622;28;20743;-68
2022/12/15 11:32:34;;;;;;;18.15;12.15;;;11.20;82.40;;;;;;4943912;28;20196;-69
2022/12/15 11:35:00;;;;;;;14.80;11.95;;;11.20;82.60;;;;;;4944048;28;20253;-68
2022/12/15 11:37:35;;;;;;;17.08;11.48;;;11.20;82.90;;;;;;4947160;28;20178;-69
2022/12/15 11:40:14;;;;;;;15.23;11.00;;;11.20;83.10;;;;;;4944773;28;20203;-69
2022/12/15 11:43:01;;;;;;;15.88;11.10;;;11.30;83.10;;;;;;4948563;28;20222;-69
2022/12/15 11:45:35;;;;;;;14.48;11.00;;;11.30;82.80;;;;;;4945895;28;20186;-69
2022/12/15 11:48:08;;;;;;;18.95;11.70;;;11.40;83.10;;;;;;4948882;28;20189;-68
2022/12/15 11:50:52;;;;;;;16.75;11.18;;;11.50;83.20;;;;;;4943645;28;20183;-69
2022/12/15 11:53:48;;;;;;;23.08;11.13;;;11.70;83.30;;;;;;4948601;28;20537;-68
2022/12/15 11:56:43;;;;;;;13.02;10.52;;;11.70;82.70;;;;;;4950420;28;20732;-67
2022/12/15 11:59:24;;;;;;;18.05;11.80;;;11.80;82.10;;;;;;4949579;28;20684;-69
2022/12/15 12:02:12;;;;;;;13.48;10.75;;;11.70;82.20;;;;;;4944672;28;20716;-69
2022/12/15 12:05:02;;;;;;;16.52;11.13;;;11.80;82.50;;;;;;4946548;28;20266;-68
2022/12/15 12:07:56;;;;;;;13.57;10.60;;;12.00;82.10;;;;;;4949005;28;20194;-68
2022/12/15 12:11:08;;;;;;;16.02;10.85;;;12.10;81.70;;;;;;4946507;28;20183;-69
2022/12/15 12:13:40;;;;;;;17.10;10.57;;;12.30;81.70;;;;;;4945792;28;20202;-68
2022/12/15 12:16:35;;;;;;;16.98;11.35;;;12.30;80.50;;;;;;4947413;28;20187;-69
2022/12/15 12:19:01;;;;;;;15.23;10.98;;;12.50;81.70;;;;;;4945566;28;20209;-69
2022/12/15 12:21:35;;;;;;;15.05;11.18;;;12.60;80.70;;;;;;4951316;28;20238;-68
2022/12/15 12:24:31;;;;;;;16.92;11.90;;;12.80;80.80;;;;;;4949329;28;20241;-67
2022/12/15 12:27:11;;;;;;;14.70;10.77;;;13.00;80.80;;;;;;4870829;29;20205;-69
2022/12/15 12:29:54;;;;;;;16.80;11.40;;;13.40;80.70;;;;;;4874860;29;20202;-70
2022/12/15 12:33:01;;;;;;;15.40;10.80;;;13.50;79.00;;;;;;4868711;29;20322;-70
2022/12/15 12:35:45;;;;;;;19.20;11.43;;;13.80;79.00;;;;;;4826325;29;20198;-70
2022/12/15 12:38:12;;;;;;;17.17;11.70;;;14.00;78.00;;;;;;4820308;29;20259;-71
2022/12/15 12:40:59;;;;;;;19.67;11.88;;;14.20;78.40;;;;;;4825353;29;20226;-71
2022/12/15 12:43:39;;;;;;;15.27;10.50;;;14.30;76.10;;;;;;4825606;29;20262;-70
2022/12/15 12:46:19;;;;;;;15.40;10.95;;;14.30;77.50;;;;;;4824861;29;20202;-69
2022/12/15 12:48:49;;;;;;;17.20;12.27;;;14.30;77.10;;;;;;4819002;29;20758;-70
2022/12/15 12:51:31;;;;;;;18.23;12.93;;;14.20;75.70;;;;;;4823767;29;20686;-69
2022/12/15 12:53:58;;;;;;;21.33;13.60;;;13.90;76.30;;;;;;4823038;29;20745;-70
2022/12/15 12:56:42;;;;;;;20.42;13.23;;;13.80;76.30;;;;;;4811639;29;21036;-70
2022/12/15 12:59:29;;;;;;;21.90;12.60;;;13.60;76.60;;;;;;4812608;29;20226;-70
2022/12/15 13:02:13;;;;;;;17.40;12.82;;;13.40;77.20;;;;;;4815319;29;21053;-69
2022/12/15 13:04:41;;;;;;;15.30;11.77;;;13.30;77.10;;;;;;4863400;29;20345;-69
2022/12/15 13:07:27;;;;;;;18.48;11.80;;;13.20;77.00;;;;;;4876945;29;20272;-71
2022/12/15 13:10:08;;;;;;;17.35;11.77;;;13.10;77.50;;;;;;4877475;29;20197;-72
2022/12/15 13:13:14;;;;;;;18.00;11.75;;;12.90;78.10;;;;;;4923084;28;20282;-70
2022/12/15 13:15:47;;;;;;;15.68;11.15;;;12.80;78.80;;;;;;4949494;28;20186;-70
2022/12/15 13:18:25;;;;;;;17.10;11.20;;;12.70;78.40;;;;;;4950861;28;20609;-71
2022/12/15 13:20:55;;;;;;;16.58;12.23;;;12.50;79.00;;;;;;4945592;28;20197;-70
2022/12/15 13:23:24;;;;;;;16.90;11.20;;;12.40;79.30;;;;;;4948807;28;20738;-69
2022/12/15 13:25:53;;;;;;;19.55;11.50;;;12.30;79.30;;;;;;4947521;28;20183;-70
2022/12/15 13:28:41;;;;;;;19.55;11.98;;;12.20;79.20;;;;;;4951580;28;20676;-70
2022/12/15 13:31:40;;;;;;;21.10;12.80;;;12.00;79.40;;;;;;4951833;28;20707;-71
2022/12/15 13:34:14;;;;;;;17.88;11.43;;;11.80;80.40;;;;;;4950355;28;20187;-72
2022/12/15 13:36:39;;;;;;;17.95;12.02;;;11.70;80.10;;;;;;4945185;28;20186;-71
2022/12/15 13:39:11;;;;;;;18.42;12.13;;;11.50;80.40;;;;;;4952061;28;20183;-72
2022/12/15 13:42:02;;;;;;;18.08;10.88;;;11.50;80.60;;;;;;4950563;28;20218;-71
2022/12/15 13:44:37;;;;;;;19.05;11.90;;;11.30;81.10;;;;;;4953820;28;20222;-70
2022/12/15 13:47:14;;;;;;;17.65;11.13;;;11.20;81.10;;;;;;4958437;28;20178;-72
2022/12/15 13:49:46;;;;;;;16.02;10.95;;;11.20;81.30;;;;;;4950175;28;20625;-71
2022/12/15 13:52:25;;;;;;;20.40;11.13;;;11.10;81.80;;;;;;4954365;28;20195;-72
2022/12/15 13:54:59;;;;;;;17.08;11.50;;;10.90;82.50;;;;;;4948699;28;20186;-71
2022/12/15 13:57:26;;;;;;;22.52;11.32;;;10.90;82.60;;;;;;4945292;28;20195;-71
2022/12/15 14:00:04;;;;;;;17.33;11.05;;;10.80;83.20;;;;;;4950636;28;20189;-71
2022/12/15 14:02:34;;;;;;;20.63;11.63;;;10.80;83.00;;;;;;4935744;28;20221;-71
2022/12/15 14:05:06;;;;;;;17.50;11.73;;;10.70;83.00;;;;;;4956471;28;20198;-70
2022/12/15 14:07:34;;;;;;;17.77;11.65;;;10.60;83.30;;;;;;4952444;28;20183;-71
2022/12/15 14:10:00;;;;;;;16.70;12.27;;;10.50;83.60;;;;;;4953593;28;20272;-71
2022/12/15 14:12:26;;;;;;;18.42;12.68;;;10.40;83.70;;;;;;4947470;28;20281;-70
2022/12/15 14:14:52;;;;;;;19.75;12.82;;;10.40;83.20;;;;;;4948732;28;20187;-70
2022/12/15 14:17:19;;;;;;;20.65;12.98;;;10.30;83.20;;;;;;4951601;28;20179;-70
2022/12/15 14:19:49;;;;;;;22.67;12.02;;;10.20;83.50;;;;;;4932719;28;20348;-71
2022/12/15 14:22:26;;;;;;;20.27;12.88;;;10.10;83.60;;;;;;4950234;28;20735;-71
2022/12/15 14:25:17;;;;;;;19.77;11.50;;;10.10;83.60;;;;;;4954813;28;20189;-70
2022/12/15 14:27:43;;;;;;;21.75;13.10;;;10.00;84.00;;;;;;4950153;28;20282;-71
2022/12/15 14:30:22;;;;;;;18.30;11.70;;;9.90;83.70;;;;;;4955619;28;20289;-70
2022/12/15 14:33:06;;;;;;;20.67;12.18;;;9.90;83.60;;;;;;4952102;28;20245;-70
2022/12/15 14:35:36;;;;;;;20.90;12.40;;;9.80;83.70;;;;;;4951847;28;20191;-71
2022/12/15 14:38:06;;;;;;;17.42;12.15;;;9.80;83.70;;;;;;4948725;28;20318;-70
2022/12/15 14:40:35;;;;;;;19.13;12.82;;;9.80;83.50;;;;;;4954138;28;20194;-71
2022/12/15 14:43:01;;;;;;;18.92;12.55;;;9.70;83.30;;;;;;4953810;28;20282;-71
2022/12/15 14:45:30;;;;;;;27.50;13.50;;;9.70;83.30;;;;;;4948927;28;20202;-71
2022/12/15 14:47:59;;;;;;;22.33;13.13;;;9.60;83.10;;;;;;4952700;28;20198;-71
2022/12/15 14:50:25;;;;;;;19.58;12.85;;;9.50;83.10;;;;;;4956041;28;20191;-70
2022/12/15 14:53:20;;;;;;;25.42;15.68;;;9.40;83.20;;;;;;4949742;28;20262;-70
2022/12/15 14:55:46;;;;;;;30.95;19.55;;;9.40;83.30;;;;;;4951930;28;20195;-70
2022/12/15 14:58:30;;;;;;;35.42;20.77;;;9.30;83.50;;;;;;4952156;28;20692;-71
2022/12/15 15:00:56;;;;;;;33.17;20.40;;;9.20;83.20;;;;;;4936324;28;20199;-71
2022/12/15 15:03:36;;;;;;;45.90;23.65;;;9.10;83.40;;;;;;4950005;28;20218;-70
2022/12/15 15:06:10;;;;;;;44.83;22.60;;;8.90;83.40;;;;;;4949848;28;20672;-71
2022/12/15 15:08:42;;;;;;;35.78;21.92;;;8.70;83.90;;;;;;4956423;28;20290;-70
2022/12/15 15:11:23;;;;;;;39.95;20.67;;;8.60;84.10;;;;;;4956703;28;20254;-71
2022/12/15 15:13:54;;;;;;;37.03;21.45;;;8.50;84.30;;;;;;4933215;28;20213;-72
2022/12/15 15:16:20;;;;;;;37.35;20.63;;;8.40;84.40;;;;;;4949032;28;20201;-72
2022/12/15 15:18:51;;;;;;;34.78;20.67;;;8.40;84.80;;;;;;4953410;28;20266;-71
2022/12/15 15:21:28;;;;;;;39.53;20.90;;;8.30;84.60;;;;;;4948964;28;20179;-71
2022/12/15 15:24:28;;;;;;;33.15;20.00;;;8.20;84.60;;;;;;4952331;28;20579;-71
2022/12/15 15:27:13;;;;;;;33.72;19.83;;;8.20;84.90;;;;;;4904986;29;20219;-71
2022/12/15 15:29:40;;;;;;;31.00;19.35;;;8.10;85.10;;;;;;4904037;29;20279;-71